Terminal Aerodrome Forecast
Issued by NWS

Home | Current Version | Previous Version | Text Only | Print | Product List | Glossary On
Versions: 1 2 3 4 5 6 7 8 9 10 11 12 13 14 15 16 17 18 19 20
000
FTUS45 KGJT 271123
TAFDRO
TAF
KDRO 271123Z 2712/2812 04003KT P6SM SCT250
     FM271800 16007KT P6SM BKN150
     FM272100 19008KT P6SM BKN080
     FM280100 21008KT P6SM VCSH OVC070
     FM280900 00000KT P6SM -SHRA OVC050
     FM281100 07004KT 5SM -SHSNRA BR OVC035=

USA.gov is the U.S. government's official web portal to all federal, state and local government web resources and services.